createdAt,value
2024-03-02T00:01:46.151Z,4.96
2024-03-02T00:04:13.812Z,4.83
2024-03-02T00:06:41.580Z,4.59
2024-03-02T00:09:10.572Z,4.72
2024-03-02T00:11:38.288Z,4.62
2024-03-02T00:14:05.916Z,4.66
2024-03-02T00:16:34.889Z,4.89
2024-03-02T00:19:08.144Z,4.86
2024-03-02T00:21:36.201Z,4.84
2024-03-02T00:24:19.644Z,4.86
2024-03-02T00:26:47.361Z,4.90
2024-03-02T00:29:20.236Z,5.11
2024-03-02T00:31:49.610Z,4.89
2024-03-02T00:34:19.771Z,4.77
2024-03-02T00:36:47.901Z,4.90
2024-03-02T00:39:18.194Z,4.98
2024-03-02T00:41:45.935Z,4.86
2024-03-02T00:44:15.168Z,5.02
2024-03-02T00:46:44.768Z,4.88
2024-03-02T00:49:20.699Z,4.78
2024-03-02T00:51:50.930Z,5.00
2024-03-02T00:54:22.411Z,4.68
2024-03-02T00:56:50.505Z,4.64
2024-03-02T00:59:18.159Z,4.75
2024-03-02T01:01:46.108Z,4.48
2024-03-02T01:04:15.183Z,4.46
2024-03-02T01:06:43.310Z,4.56
2024-03-02T01:09:13.437Z,4.74
2024-03-02T01:11:41.128Z,4.51
2024-03-02T01:14:08.865Z,4.70
2024-03-02T01:16:36.482Z,4.73
2024-03-02T01:19:05.248Z,4.96
2024-03-02T01:21:33.077Z,4.75
2024-03-02T01:24:00.765Z,4.70
2024-03-02T01:26:29.671Z,4.79
2024-03-02T01:28:57.344Z,4.77
2024-03-02T01:31:24.969Z,4.74
2024-03-02T01:33:52.593Z,4.63
2024-03-02T01:36:20.319Z,4.81
2024-03-02T01:38:47.893Z,4.37
2024-03-02T01:41:15.585Z,4.32
2024-03-02T01:43:44.601Z,4.53
2024-03-02T01:46:12.474Z,4.45
2024-03-02T01:48:40.133Z,4.53
2024-03-02T01:51:08.998Z,4.52
2024-03-02T01:53:36.707Z,4.29
2024-03-02T01:56:04.858Z,4.29
2024-03-02T01:58:32.796Z,4.32
2024-03-02T02:01:02.586Z,4.40
2024-03-02T02:03:30.413Z,4.57
2024-03-02T02:05:58.200Z,4.58
2024-03-02T02:08:25.813Z,4.53
2024-03-02T02:10:53.427Z,4.29
2024-03-02T02:13:21.072Z,4.50
2024-03-02T02:15:48.784Z,4.52
2024-03-02T02:18:17.817Z,4.50
2024-03-02T02:20:45.430Z,4.40
2024-03-02T02:23:14.692Z,4.42
2024-03-02T02:25:42.358Z,4.34
2024-03-02T02:28:10.142Z,4.35
2024-03-02T02:30:37.767Z,4.38
2024-03-02T02:33:05.855Z,4.44
2024-03-02T02:35:33.515Z,4.38
2024-03-02T02:38:01.904Z,4.51
2024-03-02T02:40:31.724Z,4.31
2024-03-02T02:43:00.181Z,4.21
2024-03-02T02:45:28.068Z,4.37
2024-03-02T02:47:56.145Z,4.41
2024-03-02T02:50:23.747Z,4.10
2024-03-02T02:52:51.537Z,4.25
2024-03-02T02:55:19.122Z,4.26
2024-03-02T02:57:48.659Z,4.21
2024-03-02T03:00:19.753Z,3.98
2024-03-02T03:02:50.697Z,4.10
2024-03-02T03:05:19.390Z,4.12
2024-03-02T03:07:47.359Z,4.13
2024-03-02T03:10:15.741Z,3.89
2024-03-02T03:12:45.062Z,4.13
2024-03-02T03:15:15.192Z,3.92
2024-03-02T03:17:43.004Z,4.01
2024-03-02T03:20:11.691Z,4.04
2024-03-02T03:22:39.425Z,4.00
2024-03-02T03:25:09.278Z,4.11
2024-03-02T03:27:37.353Z,4.14
2024-03-02T03:30:07.189Z,4.13
2024-03-02T03:32:36.386Z,3.94
2024-03-02T03:35:04.452Z,3.90
2024-03-02T03:37:34.323Z,3.77
2024-03-02T03:40:03.251Z,3.61
2024-03-02T03:42:30.897Z,3.48
2024-03-02T03:44:58.558Z,3.74
2024-03-02T03:47:26.221Z,3.62
2024-03-02T03:49:55.237Z,3.65
2024-03-02T03:52:23.096Z,3.57
2024-03-02T03:54:50.715Z,3.62
2024-03-02T03:57:18.998Z,3.63
2024-03-02T03:59:47.315Z,3.73
2024-03-02T04:02:15.017Z,3.85
2024-03-02T04:04:42.605Z,3.66
2024-03-02T04:07:11.648Z,3.96
2024-03-02T04:09:39.540Z,3.85
2024-03-02T04:12:07.397Z,3.56
2024-03-02T04:14:35.122Z,3.53
2024-03-02T04:17:02.793Z,3.59
2024-03-02T04:19:30.420Z,3.64
2024-03-02T04:22:00.019Z,3.68
2024-03-02T04:24:31.138Z,3.79
2024-03-02T04:26:58.766Z,3.63
2024-03-02T04:29:26.304Z,3.58
2024-03-02T04:31:53.918Z,3.66
2024-03-02T04:34:21.560Z,3.59
2024-03-02T04:36:49.557Z,3.42
2024-03-02T04:39:17.552Z,3.54
2024-03-02T04:41:46.795Z,3.33
2024-03-02T04:44:14.680Z,3.66
2024-03-02T04:46:42.274Z,3.42
2024-03-02T04:49:10.125Z,3.34
2024-03-02T04:51:37.854Z,3.32
2024-03-02T04:54:05.611Z,3.56
2024-03-02T04:56:45.547Z,3.44
2024-03-02T04:59:14.655Z,3.28
2024-03-02T05:01:42.309Z,3.24
2024-03-02T05:04:11.687Z,3.35
2024-03-02T05:06:40.669Z,3.35
2024-03-02T05:09:08.493Z,3.36
2024-03-02T05:12:04.024Z,3.46
2024-03-02T05:14:33.095Z,3.54
2024-03-02T05:17:00.672Z,3.11
2024-03-02T05:19:28.295Z,3.20
2024-03-02T05:21:55.978Z,3.30
2024-03-02T05:24:23.622Z,3.44
2024-03-02T05:26:51.223Z,3.40
2024-03-02T05:29:18.889Z,3.32
2024-03-02T05:31:47.851Z,3.29
2024-03-02T05:34:15.519Z,3.03
2024-03-02T05:36:43.566Z,3.11
2024-03-02T05:39:11.483Z,3.11
2024-03-02T05:41:39.618Z,3.20
2024-03-02T05:44:07.273Z,3.07
2024-03-02T05:46:34.890Z,3.14
2024-03-02T05:49:04.774Z,3.02
2024-03-02T05:51:32.372Z,2.97
2024-03-02T05:54:00.029Z,2.82
2024-03-02T05:56:27.708Z,3.01
2024-03-02T05:59:08.199Z,2.96
2024-03-02T06:01:35.924Z,3.14
2024-03-02T06:04:05.220Z,3.17
2024-03-02T06:06:33.581Z,3.22
2024-03-02T06:09:01.557Z,3.07
2024-03-02T06:11:29.161Z,3.17
2024-03-02T06:13:56.803Z,3.09
2024-03-02T06:16:24.484Z,2.96
2024-03-02T06:18:52.453Z,2.83
2024-03-02T06:21:21.579Z,2.81
2024-03-02T06:23:49.198Z,2.72
2024-03-02T06:26:16.900Z,2.60
2024-03-02T06:28:44.946Z,2.76
2024-03-02T06:31:12.691Z,2.75
2024-03-02T06:33:40.195Z,2.82
2024-03-02T06:36:09.554Z,2.83
2024-03-02T06:38:41.113Z,2.80
2024-03-02T06:41:09.917Z,2.62
2024-03-02T06:43:37.667Z,2.60
2024-03-02T06:46:06.035Z,2.73
2024-03-02T06:48:33.750Z,2.76
2024-03-02T06:51:02.438Z,2.75
2024-03-02T06:53:31.119Z,2.68
2024-03-02T06:56:00.077Z,2.74
2024-03-02T06:58:28.153Z,2.81
2024-03-02T07:00:55.775Z,2.73
2024-03-02T07:03:23.787Z,3.02
2024-03-02T07:05:52.293Z,2.79
2024-03-02T07:08:19.870Z,2.70
2024-03-02T07:10:48.485Z,2.88
2024-03-02T07:13:17.471Z,2.83
2024-03-02T07:16:12.221Z,3.03
2024-03-02T07:18:42.689Z,3.05
2024-03-02T07:21:10.440Z,3.30
2024-03-02T07:23:38.152Z,3.14
2024-03-02T07:28:39.285Z,3.35
2024-03-02T07:31:07.190Z,3.36
2024-03-02T07:33:35.092Z,3.28
2024-03-02T07:36:04.969Z,3.30
2024-03-02T07:38:35.050Z,3.49
2024-03-02T07:41:03.673Z,3.70
2024-03-02T07:43:31.818Z,3.35
2024-03-02T07:46:00.836Z,3.40
2024-03-02T07:48:28.760Z,3.62
2024-03-02T07:50:56.359Z,3.90
2024-03-02T07:53:23.971Z,3.59
2024-03-02T07:55:51.559Z,3.64
2024-03-02T07:58:20.496Z,3.64
2024-03-02T08:00:49.400Z,4.03
2024-03-02T08:03:19.270Z,3.78
2024-03-02T08:05:47.114Z,3.93
2024-03-02T08:08:14.698Z,4.01
2024-03-02T08:10:42.257Z,4.13
2024-03-02T08:13:09.820Z,4.06
2024-03-02T08:15:37.556Z,4.32
2024-03-02T08:18:06.093Z,4.34
2024-03-02T08:20:35.051Z,4.29
2024-03-02T08:23:02.733Z,4.57
2024-03-02T08:25:30.371Z,4.33
2024-03-02T08:27:58.680Z,4.60
2024-03-02T08:30:26.412Z,4.49
2024-03-02T08:32:54.021Z,4.61
2024-03-02T08:35:23.428Z,4.77
2024-03-02T08:37:52.459Z,4.81
2024-03-02T08:40:20.388Z,4.94
2024-03-02T08:42:49.104Z,5.02
2024-03-02T08:45:17.717Z,4.51
2024-03-02T08:47:45.415Z,4.64
2024-03-02T08:50:13.077Z,4.88
2024-03-02T08:52:41.337Z,5.00
2024-03-02T08:55:12.253Z,5.16
2024-03-02T08:57:40.295Z,5.46
2024-03-02T09:00:09.313Z,5.06
2024-03-02T09:02:37.343Z,4.91
2024-03-02T09:05:06.325Z,5.07
2024-03-02T09:07:33.906Z,5.02
2024-03-02T09:10:01.557Z,5.19
2024-03-02T09:12:30.555Z,5.29
2024-03-02T09:14:58.500Z,5.57
2024-03-02T09:17:26.141Z,5.41
2024-03-02T09:19:54.288Z,5.35
2024-03-02T09:22:22.448Z,5.45
2024-03-02T09:24:50.054Z,5.67
2024-03-02T09:27:17.671Z,6.04
2024-03-02T09:29:46.572Z,5.96
2024-03-02T09:32:15.625Z,6.23
2024-03-02T09:34:44.329Z,6.35
2024-03-02T09:37:12.147Z,6.45
2024-03-02T09:39:39.787Z,6.81
2024-03-02T09:42:08.177Z,7.13
2024-03-02T09:44:35.902Z,7.45
2024-03-02T09:47:05.272Z,7.51
2024-03-02T09:49:33.126Z,7.88
2024-03-02T09:52:01.137Z,8.14
2024-03-02T09:54:29.812Z,8.62
2024-03-02T09:56:57.658Z,8.68
2024-03-02T09:59:25.336Z,8.68
2024-03-02T10:02:00.439Z,8.30
2024-03-02T10:04:30.752Z,8.78
2024-03-02T10:07:13.072Z,8.40
2024-03-02T10:09:41.064Z,8.99
2024-03-02T10:12:11.197Z,9.57
2024-03-02T10:14:39.077Z,10.33
2024-03-02T10:17:08.413Z,10.86
2024-03-02T10:19:38.259Z,11.19
2024-03-02T10:22:07.232Z,11.59
2024-03-02T10:24:39.922Z,11.76
2024-03-02T10:27:12.337Z,11.78
2024-03-02T10:29:41.622Z,12.06
2024-03-02T10:32:12.159Z,12.39
2024-03-02T10:34:42.326Z,12.16
2024-03-02T10:37:10.603Z,12.50
2024-03-02T10:39:40.829Z,12.96
2024-03-02T10:42:10.139Z,13.31
2024-03-02T10:44:37.757Z,13.97
2024-03-02T10:47:06.676Z,14.02
2024-03-02T10:49:35.145Z,14.33
2024-03-02T10:52:05.087Z,14.44
2024-03-02T10:54:37.981Z,14.83
2024-03-02T10:57:10.529Z,15.27
2024-03-02T10:59:40.830Z,16.08
2024-03-02T11:02:11.024Z,16.27
2024-03-02T11:04:40.151Z,16.92
2024-03-02T11:07:12.006Z,17.61
2024-03-02T11:09:44.214Z,17.92
2024-03-02T11:12:15.449Z,18.02
2024-03-02T11:14:45.172Z,17.91
2024-03-02T11:17:16.744Z,18.47
2024-03-02T11:19:46.334Z,19.17
2024-03-02T11:22:16.819Z,19.62
2024-03-02T11:24:52.325Z,19.71
2024-03-02T11:27:54.003Z,19.94
2024-03-02T11:34:31.717Z,20.94
2024-03-02T11:37:00.163Z,21.45
2024-03-02T11:39:30.451Z,21.73
2024-03-02T11:42:00.248Z,21.43
2024-03-02T11:44:28.658Z,21.31
2024-03-02T11:47:00.649Z,21.72
2024-03-02T11:49:39.756Z,22.27
2024-03-02T11:52:09.136Z,22.57
2024-03-02T11:54:40.572Z,22.68
2024-03-02T11:57:09.780Z,23.14
2024-03-02T11:59:37.414Z,23.51
2024-03-02T12:02:05.353Z,23.30
2024-03-02T12:04:33.116Z,22.55
2024-03-02T12:07:02.415Z,22.35
2024-03-02T12:09:31.149Z,22.23
2024-03-02T12:12:10.580Z,21.76
2024-03-02T12:14:40.096Z,21.94
2024-03-02T12:17:08.066Z,22.67
2024-03-02T12:19:35.924Z,22.91
2024-03-02T12:22:04.158Z,23.30
2024-03-02T12:24:32.214Z,23.68
2024-03-02T12:27:00.541Z,23.68
2024-03-02T12:29:29.670Z,22.14
2024-03-02T12:31:57.434Z,20.65
2024-03-02T12:34:25.734Z,21.78
2024-03-02T12:36:54.387Z,22.18
2024-03-02T12:39:24.036Z,23.07
2024-03-02T12:41:52.622Z,23.57
2024-03-02T12:44:20.367Z,23.60
2024-03-02T12:46:49.366Z,23.93
2024-03-02T12:49:17.929Z,24.20
2024-03-02T12:51:48.146Z,23.77
2024-03-02T12:54:16.539Z,23.98
2024-03-02T12:56:46.471Z,24.31
2024-03-02T12:59:20.243Z,24.16
2024-03-02T13:01:53.929Z,24.20
2024-03-02T13:04:24.752Z,23.14
2024-03-02T13:06:53.581Z,23.52
2024-03-02T13:09:21.619Z,23.15
2024-03-02T13:11:49.426Z,21.96
2024-03-02T13:14:17.336Z,22.24
2024-03-02T13:16:49.212Z,23.08
2024-03-02T13:19:20.095Z,23.77
2024-03-02T13:21:47.925Z,23.88
2024-03-02T13:24:15.599Z,24.48
2024-03-02T13:26:43.292Z,25.48
2024-03-02T13:29:11.007Z,24.20
2024-03-02T13:31:38.665Z,24.28
2024-03-02T13:34:06.380Z,24.80
2024-03-02T13:36:35.411Z,25.25
2024-03-02T13:39:03.927Z,25.06
2024-03-02T13:41:31.715Z,25.53
2024-03-02T13:44:02.146Z,25.97
2024-03-02T13:46:29.811Z,25.75
2024-03-02T13:48:57.795Z,25.92
2024-03-02T13:51:26.546Z,25.79
2024-03-02T13:53:55.565Z,25.25
2024-03-02T13:56:23.458Z,25.78
2024-03-02T13:58:51.122Z,25.77
2024-03-02T14:01:18.828Z,26.32
2024-03-02T14:03:47.577Z,26.19
2024-03-02T14:06:15.420Z,26.12
2024-03-02T14:08:45.843Z,26.21
2024-03-02T14:11:16.554Z,24.78
2024-03-02T14:13:45.436Z,25.42
2024-03-02T14:16:13.176Z,25.80
2024-03-02T14:18:40.872Z,24.97
2024-03-02T14:21:09.751Z,25.10
2024-03-02T14:23:37.348Z,25.60
2024-03-02T14:26:05.482Z,25.41
2024-03-02T14:28:48.138Z,25.59
2024-03-02T14:31:18.810Z,25.85
2024-03-02T14:33:46.759Z,25.36
2024-03-02T14:36:14.807Z,25.46
2024-03-02T14:38:42.609Z,25.13
2024-03-02T14:41:10.307Z,25.05
2024-03-02T14:43:39.361Z,25.01
2024-03-02T14:46:09.417Z,24.70
2024-03-02T14:48:37.319Z,24.59
2024-03-02T14:51:06.206Z,24.48
2024-03-02T14:53:33.814Z,24.44
2024-03-02T14:56:01.435Z,24.26
2024-03-02T14:58:29.073Z,23.70
2024-03-02T15:00:58.386Z,23.71
2024-03-02T15:03:26.093Z,23.01
2024-03-02T15:05:54.795Z,23.08
2024-03-02T15:08:22.566Z,23.12
2024-03-02T15:10:50.258Z,22.78
2024-03-02T15:13:18.439Z,22.49
2024-03-02T15:15:46.244Z,21.95
2024-03-02T15:18:15.335Z,21.76
2024-03-02T15:20:43.028Z,21.30
2024-03-02T15:23:10.643Z,21.06
2024-03-02T15:25:38.296Z,20.73
2024-03-02T15:28:06.786Z,20.35
2024-03-02T15:30:34.554Z,20.04
2024-03-02T15:33:02.242Z,19.86
2024-03-02T15:35:31.302Z,19.77
2024-03-02T15:37:58.983Z,19.91
2024-03-02T15:40:27.184Z,19.74
2024-03-02T15:42:54.871Z,19.51
2024-03-02T15:45:22.574Z,18.94
2024-03-02T15:47:50.308Z,18.85
2024-03-02T15:50:18.450Z,18.21
2024-03-02T15:52:47.994Z,18.05
2024-03-02T15:55:16.781Z,17.82
2024-03-02T15:57:44.498Z,17.85
2024-03-02T16:00:13.030Z,17.65
2024-03-02T16:02:40.648Z,16.70
2024-03-02T16:05:08.807Z,16.53
2024-03-02T16:07:36.507Z,16.52
2024-03-02T16:10:08.691Z,16.04
2024-03-02T16:12:36.541Z,15.98
2024-03-02T16:15:05.883Z,15.86
2024-03-02T16:17:33.493Z,15.33
2024-03-02T16:20:01.127Z,15.26
2024-03-02T16:22:28.750Z,15.03
2024-03-02T16:24:56.358Z,15.14
2024-03-02T16:27:25.701Z,14.99
2024-03-02T16:29:55.842Z,15.18
2024-03-02T16:32:23.553Z,15.16
2024-03-02T16:34:52.862Z,15.17
2024-03-02T16:37:21.378Z,15.31
2024-03-02T16:39:49.674Z,15.23
2024-03-02T16:42:17.409Z,15.17
2024-03-02T16:44:48.633Z,15.02
2024-03-02T16:47:16.470Z,15.06
2024-03-02T16:49:46.164Z,15.04
2024-03-02T16:52:15.445Z,14.84
2024-03-02T16:54:43.135Z,14.65
2024-03-02T16:57:11.469Z,14.49
2024-03-02T16:59:39.077Z,14.54
2024-03-02T17:02:08.054Z,14.25
2024-03-02T17:04:35.659Z,14.17
2024-03-02T17:07:03.340Z,14.36
2024-03-02T17:09:31.102Z,13.85
2024-03-02T17:11:58.755Z,13.92
2024-03-02T17:14:27.090Z,13.93
2024-03-02T17:16:54.695Z,13.85
2024-03-02T17:19:23.693Z,13.83
2024-03-02T17:21:51.317Z,13.73
2024-03-02T17:24:18.928Z,13.74
2024-03-02T17:26:46.528Z,13.69
2024-03-02T17:29:14.138Z,13.34
2024-03-02T17:31:41.794Z,13.28
2024-03-02T17:34:09.426Z,13.34
2024-03-02T17:36:38.464Z,13.23
2024-03-02T17:39:06.165Z,13.21
2024-03-02T17:41:34.194Z,13.40
2024-03-02T17:44:01.791Z,13.17
2024-03-02T17:46:29.504Z,12.96
2024-03-02T17:48:57.133Z,13.25
2024-03-02T17:51:25.498Z,13.10
2024-03-02T17:53:54.474Z,12.80
2024-03-02T17:56:22.097Z,12.59
2024-03-02T17:58:50.030Z,12.57
2024-03-02T18:01:18.198Z,12.53
2024-03-02T18:03:45.917Z,12.60
2024-03-02T18:06:15.377Z,12.53
2024-03-02T18:08:43.146Z,12.33
2024-03-02T18:11:12.282Z,12.40
2024-03-02T18:13:39.947Z,12.34
2024-03-02T18:16:07.988Z,12.37
2024-03-02T18:18:35.767Z,12.44
2024-03-02T18:21:05.787Z,12.51
2024-03-02T18:23:33.431Z,12.37
2024-03-02T18:26:01.032Z,12.30
2024-03-02T18:28:30.003Z,12.42
2024-03-02T18:30:59.451Z,12.27
2024-03-02T18:33:27.242Z,12.12
2024-03-02T18:35:56.415Z,12.16
2024-03-02T18:38:24.642Z,12.00
2024-03-02T18:40:52.293Z,12.01
2024-03-02T18:43:20.233Z,12.02
2024-03-02T18:45:49.288Z,11.85
2024-03-02T18:48:17.008Z,11.70
2024-03-02T18:50:44.671Z,11.87
2024-03-02T18:53:13.906Z,11.73
2024-03-02T18:55:41.693Z,11.80
2024-03-02T18:58:09.406Z,11.73
2024-03-02T19:00:37.171Z,11.31
2024-03-02T19:03:08.688Z,11.41
2024-03-02T19:05:38.867Z,11.13
2024-03-02T19:08:07.342Z,11.12
2024-03-02T19:10:34.912Z,11.06
2024-03-02T19:13:02.534Z,11.10
2024-03-02T19:15:30.148Z,11.16
2024-03-02T19:17:57.847Z,10.86
2024-03-02T19:20:26.818Z,10.65
2024-03-02T19:22:55.480Z,10.26
2024-03-02T19:25:23.269Z,9.73
2024-03-02T19:27:50.863Z,9.37
2024-03-02T19:30:18.511Z,9.26
2024-03-02T19:32:46.237Z,9.19
2024-03-02T19:35:14.173Z,9.09
2024-03-02T19:37:43.195Z,8.79
2024-03-02T19:40:12.054Z,9.21
2024-03-02T19:42:39.725Z,9.43
2024-03-02T19:45:08.191Z,9.73
2024-03-02T19:47:36.218Z,10.16
2024-03-02T19:50:05.331Z,10.26
2024-03-02T19:52:33.266Z,10.25
2024-03-02T19:55:02.858Z,10.36
2024-03-02T19:57:30.860Z,10.35
2024-03-02T19:59:58.560Z,10.10
2024-03-02T20:02:28.000Z,10.03
2024-03-02T20:04:55.696Z,9.88
2024-03-02T20:07:23.273Z,9.73
2024-03-02T20:09:51.636Z,9.85
2024-03-02T20:12:20.630Z,9.82
2024-03-02T20:14:48.243Z,9.91
2024-03-02T20:17:16.802Z,9.98
2024-03-02T20:19:44.364Z,10.14
2024-03-02T20:22:12.220Z,10.18
2024-03-02T20:24:39.896Z,10.37
2024-03-02T20:27:08.109Z,10.10
2024-03-02T20:29:37.063Z,10.01
2024-03-02T20:32:04.885Z,9.24
2024-03-02T20:34:32.495Z,9.18
2024-03-02T20:37:01.682Z,9.12
2024-03-02T20:39:29.322Z,9.32
2024-03-02T20:41:56.898Z,9.38
2024-03-02T20:44:27.003Z,8.98
2024-03-02T20:46:56.162Z,8.85
2024-03-02T20:49:24.752Z,8.99
2024-03-02T20:51:52.577Z,9.33
2024-03-02T20:54:20.174Z,9.57
2024-03-02T20:56:47.781Z,9.28
2024-03-02T20:59:15.409Z,9.25
2024-03-02T21:01:44.513Z,9.38
2024-03-02T21:04:15.747Z,9.42
2024-03-02T21:06:44.749Z,9.37
2024-03-02T21:09:12.381Z,9.34
2024-03-02T21:11:40.041Z,9.57
2024-03-02T21:14:07.648Z,9.49
2024-03-02T21:16:35.242Z,8.83
2024-03-02T21:19:02.827Z,8.85
2024-03-02T21:21:31.826Z,8.62
2024-03-02T21:23:58.497Z,8.82
2024-03-02T21:26:26.595Z,8.96
2024-03-02T21:28:54.153Z,9.05
2024-03-02T21:31:21.825Z,8.85
2024-03-02T21:33:49.492Z,8.86
2024-03-02T21:36:17.069Z,8.92
2024-03-02T21:38:45.999Z,9.02
2024-03-02T21:41:13.578Z,9.14
2024-03-02T21:43:42.849Z,8.93
2024-03-02T21:46:12.584Z,8.72
2024-03-02T21:48:40.782Z,8.62
2024-03-02T21:51:08.528Z,8.73
2024-03-02T21:53:37.918Z,8.58
2024-03-02T21:56:08.759Z,8.70
2024-03-02T21:58:36.514Z,8.97
2024-03-02T22:01:04.273Z,9.07
2024-03-02T22:03:32.755Z,9.01
2024-03-02T22:06:00.496Z,9.07
2024-03-02T22:08:28.654Z,8.73
2024-03-02T22:10:56.551Z,8.75
2024-03-02T22:13:25.521Z,8.63
2024-03-02T22:15:53.148Z,8.53
2024-03-02T22:18:20.748Z,8.21
2024-03-02T22:20:48.812Z,8.16
2024-03-02T22:23:16.746Z,8.16
2024-03-02T22:25:44.384Z,8.19
2024-03-02T22:28:12.014Z,8.34
2024-03-02T22:30:40.973Z,8.03
2024-03-02T22:33:08.627Z,7.66
2024-03-02T22:35:36.277Z,7.73
2024-03-02T22:38:04.007Z,7.57
2024-03-02T22:40:31.968Z,7.77
2024-03-02T22:43:00.248Z,7.81
2024-03-02T22:45:27.873Z,7.78
2024-03-02T22:47:56.832Z,7.90
2024-03-02T22:50:25.057Z,8.04
2024-03-02T22:52:52.925Z,8.06
2024-03-02T22:55:20.829Z,7.90
2024-03-02T22:57:48.498Z,7.84
2024-03-02T23:00:32.214Z,7.76
2024-03-02T23:03:01.441Z,7.61
2024-03-02T23:05:29.194Z,7.39
2024-03-02T23:07:57.139Z,7.32
2024-03-02T23:10:24.831Z,7.23
2024-03-02T23:12:52.875Z,7.37
2024-03-02T23:15:20.503Z,7.53
2024-03-02T23:17:48.267Z,7.92
2024-03-02T23:20:17.477Z,8.00
2024-03-02T23:22:45.898Z,8.13
2024-03-02T23:25:13.596Z,8.01
2024-03-02T23:27:41.260Z,8.29
2024-03-02T23:30:10.882Z,8.41
2024-03-02T23:32:38.512Z,8.23
2024-03-02T23:35:06.494Z,8.24
2024-03-02T23:37:35.426Z,8.14
2024-03-02T23:40:34.211Z,8.13
2024-03-02T23:43:01.912Z,8.28
2024-03-02T23:45:29.545Z,8.22
2024-03-02T23:47:57.261Z,8.09
2024-03-02T23:50:25.074Z,7.96
2024-03-02T23:52:53.991Z,7.98
2024-03-02T23:55:22.962Z,7.74
2024-03-02T23:57:51.873Z,7.80
